Terminal Aerodrome Forecast
Issued by NWS Lake Charles, LA

Current Version | Previous Version | Text Only | Print | Product List | Glossary On
Versions: 1 2 3 4 5 6 7 8 9 10 11 12 13 14 15 16 17 18 19
000
FTUS44 KLCH 291721
TAFARA
TAF
KARA 291721Z 2918/3018 25004KT P6SM VCTS BKN035CB BKN250
     FM292100 18004KT P6SM VCTS SCT050CB SCT250
     FM300100 VRB03KT P6SM FEW250=

USA.gov is the U.S. government's official web portal to all federal, state and local government web resources and services.